Time;durP1;ratioP1;P1;durP2;ratioP2;P2;SDS_P1;SDS_P2;PMS_P1;PMS_P2;Temp;Humidity;BMP_temperature;BMP_pressure;BME280_temperature;BME280_humidity;BME280_pressure;Samples;Min_cycle;Max_cycle;Signal;HPM_P1;HPM_P2
2023/01/31 00:00:20;;;;;;;28.75;10.90;;;;;;;6.45;74.88;102384.41;5072244;28;20056;-75
2023/01/31 00:02:48;;;;;;;26.80;10.85;;;;;;;6.57;75.19;102387.09;5071011;28;20415;-75
2023/01/31 00:05:16;;;;;;;27.83;11.35;;;;;;;6.59;75.13;102385.75;5076563;28;20064;-78
2023/01/31 00:07:46;;;;;;;33.88;12.75;;;;;;;6.63;74.99;102381.47;5059254;28;20048;-76
2023/01/31 00:10:13;;;;;;;31.40;11.67;;;;;;;6.48;74.89;102380.34;5058244;28;20060;-76
2023/01/31 00:12:40;;;;;;;34.85;11.90;;;;;;;6.71;74.59;102378.31;5076736;28;20404;-77
2023/01/31 00:15:08;;;;;;;27.95;11.20;;;;;;;6.46;75.10;102380.59;5075465;28;20048;-76
2023/01/31 00:17:36;;;;;;;28.95;10.63;;;;;;;6.32;75.41;102384.72;5044161;28;20059;-75
2023/01/31 00:20:05;;;;;;;31.92;10.98;;;;;;;6.58;75.15;102381.38;5077119;28;20491;-75
2023/01/31 00:22:32;;;;;;;29.73;11.10;;;;;;;6.44;74.97;102380.00;5074459;28;20052;-75
2023/01/31 00:25:00;;;;;;;27.25;10.30;;;;;;;6.39;75.17;102381.81;5062007;28;20056;-76
2023/01/31 00:27:27;;;;;;;32.88;10.85;;;;;;;6.43;75.46;102377.53;5074960;28;20377;-76
2023/01/31 00:29:54;;;;;;;22.63;9.68;;;;;;;6.15;76.35;102375.63;5075954;28;20052;-76
2023/01/31 00:32:22;;;;;;;32.63;10.98;;;;;;;6.09;76.71;102373.03;5075179;28;20055;-76
2023/01/31 00:34:50;;;;;;;25.02;10.93;;;;;;;6.31;76.56;102379.50;5074421;28;20523;-76
2023/01/31 00:37:17;;;;;;;24.10;10.55;;;;;;;6.25;76.07;102381.28;5075497;28;20054;-76
2023/01/31 00:39:44;;;;;;;30.70;10.75;;;;;;;6.34;75.78;102379.84;5076237;28;20044;-76
2023/01/31 00:42:11;;;;;;;25.25;10.70;;;;;;;6.35;75.66;102377.91;5060046;28;20072;-76
2023/01/31 00:44:40;;;;;;;38.67;10.25;;;;;;;6.25;75.91;102378.56;5058222;28;20052;-76
2023/01/31 00:47:07;;;;;;;31.48;10.43;;;;;;;6.30;76.33;102375.91;5068310;28;20048;-76
2023/01/31 00:49:35;;;;;;;29.50;10.02;;;;;;;6.46;75.35;102385.25;5057744;28;20059;-75
2023/01/31 00:52:03;;;;;;;27.13;10.48;;;;;;;6.37;75.74;102375.75;5070754;28;20048;-75
2023/01/31 00:54:30;;;;;;;33.20;10.68;;;;;;;6.42;75.36;102379.44;5076290;28;20055;-76
2023/01/31 00:56:57;;;;;;;26.63;10.60;;;;;;;6.42;75.41;102373.94;5075264;28;20044;-76
2023/01/31 00:59:25;;;;;;;25.58;10.70;;;;;;;6.17;75.96;102375.38;5055346;28;20052;-75
2023/01/31 01:01:53;;;;;;;35.53;11.02;;;;;;;6.01;77.00;102371.53;5075193;28;20041;-75
2023/01/31 01:04:20;;;;;;;28.90;11.07;;;;;;;6.10;77.19;102363.75;5067837;28;20147;-75
2023/01/31 01:06:49;;;;;;;30.75;11.13;;;;;;;6.16;76.83;102362.75;5075341;28;20067;-77
2023/01/31 01:09:16;;;;;;;27.48;10.45;;;;;;;6.24;76.19;102351.44;5058615;28;20055;-77
2023/01/31 01:11:44;;;;;;;24.98;10.23;;;;;;;6.08;76.54;102353.06;5058099;28;20056;-75
2023/01/31 01:14:11;;;;;;;31.85;9.73;;;;;;;6.04;76.52;102349.16;5082439;28;20086;-76
2023/01/31 01:16:39;;;;;;;26.00;10.38;;;;;;;6.04;76.79;102346.41;5087203;28;20051;-77
2023/01/31 01:19:16;;;;;;;25.98;9.63;;;;;;;6.07;76.97;102348.66;5077897;28;20056;-75
2023/01/31 01:21:45;;;;;;;27.02;8.68;;;;;;;6.22;76.72;102350.84;5046958;28;20052;-75
2023/01/31 01:24:16;;;;;;;29.02;10.32;;;;;;;6.07;76.67;102350.53;5059017;28;20140;-73
2023/01/31 01:26:44;;;;;;;25.85;8.45;;;;;;;6.13;76.20;102346.84;5062347;28;20610;-75
2023/01/31 01:29:12;;;;;;;26.92;9.93;;;;;;;6.00;77.21;102358.91;5062077;28;20048;-74
2023/01/31 01:31:39;;;;;;;26.17;9.23;;;;;;;6.20;76.45;102353.00;5073857;28;20055;-74
2023/01/31 01:34:11;;;;;;;22.30;9.18;;;;;;;6.19;76.14;102357.63;5062212;28;20484;-74
2023/01/31 01:36:38;;;;;;;24.60;9.25;;;;;;;6.20;76.67;102361.22;5072257;28;20182;-74
2023/01/31 01:39:08;;;;;;;23.60;8.55;;;;;;;6.36;75.64;102350.28;5070403;28;20044;-75
2023/01/31 01:41:36;;;;;;;23.85;8.32;;;;;;;6.29;75.94;102357.84;5071093;28;20156;-76
2023/01/31 01:44:41;;;;;;;24.02;9.07;;;;;;;6.39;75.49;102349.81;5077554;28;20049;-76
2023/01/31 01:47:41;;;;;;;26.88;8.70;;;;;;;6.27;76.29;102357.25;5078096;28;20052;-74
2023/01/31 01:50:20;;;;;;;26.25;8.48;;;;;;;6.32;76.12;102351.03;5074372;28;20415;-76
2023/01/31 01:53:14;;;;;;;24.52;8.35;;;;;;;6.27;76.29;102356.41;5058737;28;20060;-75
2023/01/31 01:55:49;;;;;;;26.02;7.75;;;;;;;6.24;76.28;102355.00;5063395;28;20476;-75
2023/01/31 01:58:32;;;;;;;21.60;7.07;;;;;;;6.25;76.63;102344.88;5078925;28;20375;-75
2023/01/31 02:01:00;;;;;;;28.77;8.98;;;;;;;6.35;76.12;102351.38;5078372;28;20055;-76
2023/01/31 02:03:27;;;;;;;25.70;8.20;;;;;;;6.35;75.64;102345.06;5055287;28;20511;-75
2023/01/31 02:05:59;;;;;;;29.03;7.47;;;;;;;6.24;75.67;102348.72;5066098;28;20394;-75
2023/01/31 02:08:29;;;;;;;20.85;6.80;;;;;;;6.21;76.33;102343.69;5070947;28;20944;-75
2023/01/31 02:11:05;;;;;;;25.48;7.80;;;;;;;6.18;76.43;102339.56;5065769;28;20044;-75
2023/01/31 02:13:33;;;;;;;27.90;7.35;;;;;;;6.15;76.24;102339.22;5064470;28;20056;-74
2023/01/31 02:16:00;;;;;;;28.77;8.32;;;;;;;5.88;77.42;102347.16;5075567;28;20495;-75
2023/01/31 02:18:28;;;;;;;23.95;7.88;;;;;;;5.85;77.79;102336.72;5076298;28;20045;-75
2023/01/31 02:21:19;;;;;;;25.17;7.15;;;;;;;5.87;77.84;102336.47;5060151;28;20488;-76
2023/01/31 02:24:02;;;;;;;21.50;6.88;;;;;;;5.87;77.39;102337.31;5064767;28;20075;-76
2023/01/31 02:26:48;;;;;;;22.95;7.20;;;;;;;5.95;77.67;102345.13;5066425;28;20056;-75
2023/01/31 02:29:22;;;;;;;24.00;7.50;;;;;;;5.92;77.58;102340.16;5055253;28;20056;-75
2023/01/31 02:32:11;;;;;;;23.67;7.50;;;;;;;5.84;77.67;102342.44;5060256;28;20071;-76
2023/01/31 02:34:53;;;;;;;18.75;6.88;;;;;;;5.92;77.91;102348.34;5055809;28;20052;-75
2023/01/31 02:37:33;;;;;;;23.33;6.78;;;;;;;5.87;77.59;102351.00;5071270;28;20052;-76
2023/01/31 02:40:07;;;;;;;22.15;7.20;;;;;;;5.81;78.03;102346.44;5054272;28;20060;-76
2023/01/31 02:43:04;;;;;;;22.10;7.25;;;;;;;5.72;78.38;102350.63;5074179;28;20440;-75
2023/01/31 02:45:46;;;;;;;32.22;6.82;;;;;;;5.86;78.42;102343.84;5062179;28;20048;-75
2023/01/31 02:48:27;;;;;;;21.63;7.78;;;;;;;6.04;77.55;102353.78;5054928;28;20053;-74
2023/01/31 02:51:11;;;;;;;25.98;7.82;;;;;;;5.87;78.04;102353.72;5064287;28;20064;-74
2023/01/31 02:53:55;;;;;;;21.13;6.85;;;;;;;5.75;78.55;102350.16;5058616;28;20519;-75
2023/01/31 02:56:30;;;;;;;21.88;8.35;;;;;;;5.73;78.52;102342.22;5074076;28;20052;-75
2023/01/31 02:59:13;;;;;;;21.90;8.20;;;;;;;5.77;78.78;102339.78;5038285;28;20056;-74
2023/01/31 03:01:45;;;;;;;25.77;8.00;;;;;;;5.85;78.31;102339.47;5051348;28;20052;-75
2023/01/31 03:04:13;;;;;;;23.08;6.85;;;;;;;5.74;78.51;102343.84;5042237;28;20095;-74
2023/01/31 03:07:00;;;;;;;24.27;7.80;;;;;;;5.99;78.25;102340.00;5020352;28;1102848;-75
2023/01/31 03:10:01;;;;;;;23.48;7.25;;;;;;;6.01;77.98;102340.59;5061165;28;20053;-75
2023/01/31 03:12:32;;;;;;;20.95;7.43;;;;;;;6.07;77.62;102343.19;5043197;28;20059;-74
2023/01/31 03:15:09;;;;;;;24.50;6.88;;;;;;;5.98;77.69;102344.63;5077579;28;20115;-76
2023/01/31 03:17:36;;;;;;;28.30;7.82;;;;;;;5.73;78.03;102347.69;5059522;28;20079;-74
2023/01/31 03:20:16;;;;;;;28.35;7.43;;;;;;;5.79;78.69;102343.13;5076715;28;20052;-75
2023/01/31 03:22:48;;;;;;;23.40;7.22;;;;;;;5.93;78.03;102350.00;5042900;28;20452;-75
2023/01/31 03:25:17;;;;;;;20.75;6.82;;;;;;;5.88;78.41;102349.91;5038174;28;20048;-75
2023/01/31 03:27:51;;;;;;;31.50;7.70;;;;;;;5.76;78.77;102354.56;5075554;28;20128;-74
2023/01/31 03:30:42;;;;;;;23.00;6.72;;;;;;;5.77;79.12;102356.19;5058917;28;20411;-74
2023/01/31 03:33:18;;;;;;;27.38;7.20;;;;;;;5.72;79.52;102350.63;5075771;28;20468;-75
2023/01/31 03:35:55;;;;;;;24.55;6.75;;;;;;;5.66;79.73;102354.34;5057910;28;20048;-75
2023/01/31 03:38:32;;;;;;;25.75;7.07;;;;;;;5.51;80.83;102354.84;5039291;28;20056;-75
2023/01/31 03:41:46;;;;;;;24.10;6.25;;;;;;;5.95;79.25;102358.81;5045814;28;20071;-74
2023/01/31 03:44:25;;;;;;;25.58;7.72;;;;;;;5.52;79.96;102352.94;5049137;28;20056;-76
2023/01/31 03:47:17;;;;;;;26.13;8.32;;;;;;;5.56;80.24;102356.88;5043208;28;20040;-75
2023/01/31 03:49:46;;;;;;;25.20;7.35;;;;;;;5.75;79.68;102361.91;5072443;28;20059;-75
2023/01/31 03:52:22;;;;;;;27.03;8.03;;;;;;;5.66;79.56;102354.34;5074540;28;20097;-75
2023/01/31 03:54:59;;;;;;;27.63;7.80;;;;;;;5.59;79.84;102351.75;5041271;28;20049;-75
2023/01/31 03:57:34;;;;;;;22.23;8.00;;;;;;;5.77;79.58;102358.94;5058307;28;20041;-74
2023/01/31 04:00:05;;;;;;;25.52;7.53;;;;;;;5.48;79.99;102354.47;5074767;28;20156;-75
2023/01/31 04:02:41;;;;;;;24.80;6.95;;;;;;;5.51;80.44;102354.00;5074741;28;20056;-75
2023/01/31 04:05:18;;;;;;;19.50;6.68;;;;;;;5.80;79.54;102355.72;5058169;28;20052;-74
2023/01/31 04:07:48;;;;;;;23.48;7.47;;;;;;;5.69;79.38;102354.69;5040892;28;20052;-75
2023/01/31 04:10:21;;;;;;;22.67;6.95;;;;;;;5.63;79.21;102368.50;5042694;28;20487;-74
2023/01/31 04:12:49;;;;;;;23.08;6.82;;;;;;;5.57;79.56;102351.16;5075671;28;20045;-75
2023/01/31 04:15:16;;;;;;;21.42;6.10;;;;;;;5.55;79.66;102347.81;5075103;28;20045;-75
2023/01/31 04:17:44;;;;;;;27.58;6.50;;;;;;;5.37;80.58;102347.97;5074258;28;20491;-74
2023/01/31 04:20:12;;;;;;;21.65;5.80;;;;;;;5.47;80.60;102355.56;5058301;28;20060;-74
2023/01/31 04:22:39;;;;;;;26.17;6.05;;;;;;;5.54;80.39;102359.00;5075508;28;20699;-73
2023/01/31 04:25:07;;;;;;;23.45;6.05;;;;;;;5.67;80.23;102353.25;5075629;28;20044;-74
2023/01/31 04:27:34;;;;;;;25.08;7.75;;;;;;;5.71;79.68;102355.28;5073425;28;20048;-74
2023/01/31 04:30:02;;;;;;;21.88;6.53;;;;;;;5.71;79.25;102359.91;5074422;28;20619;-75
2023/01/31 04:32:30;;;;;;;23.80;6.25;;;;;;;5.85;78.64;102360.50;5075512;28;20055;-75
2023/01/31 04:34:58;;;;;;;24.80;6.28;;;;;;;5.46;79.51;102353.88;5075965;28;20515;-76
2023/01/31 04:37:28;;;;;;;20.60;6.20;;;;;;;5.38;80.08;102355.09;5074346;28;20059;-75
2023/01/31 04:39:55;;;;;;;21.13;5.63;;;;;;;5.43;80.55;102354.38;5076666;28;20048;-74
2023/01/31 04:42:23;;;;;;;26.13;6.47;;;;;;;5.50;80.03;102355.91;5058853;28;20064;-75
2023/01/31 04:44:50;;;;;;;24.70;7.53;;;;;;;5.05;81.30;102367.69;5075677;28;20052;-75
2023/01/31 04:47:17;;;;;;;24.85;5.63;;;;;;;5.29;81.31;102359.25;5057680;28;20060;-75
2023/01/31 04:49:45;;;;;;;17.67;5.70;;;;;;;5.38;81.73;102357.84;5074523;28;20059;-75
2023/01/31 04:52:12;;;;;;;22.42;6.10;;;;;;;5.16;81.82;102355.94;5075124;28;20056;-74
2023/01/31 04:54:40;;;;;;;22.38;6.40;;;;;;;5.32;81.50;102350.59;5074527;28;20049;-75
2023/01/31 04:57:08;;;;;;;22.65;5.75;;;;;;;5.28;81.04;102360.31;5074078;28;20044;-75
2023/01/31 04:59:35;;;;;;;25.35;6.45;;;;;;;5.24;81.46;102350.97;5075094;28;20048;-76
2023/01/31 05:02:02;;;;;;;24.00;6.40;;;;;;;5.34;81.11;102350.34;5057190;28;20383;-75
2023/01/31 05:04:30;;;;;;;20.45;6.07;;;;;;;5.29;80.89;102352.97;5075588;28;20055;-75
2023/01/31 05:06:58;;;;;;;26.48;6.43;;;;;;;5.17;81.60;102352.97;5074844;28;20057;-73
2023/01/31 05:09:26;;;;;;;22.50;6.80;;;;;;;5.03;82.16;102342.50;5059001;28;20044;-75
2023/01/31 05:11:53;;;;;;;27.10;6.22;;;;;;;4.92;83.00;102346.91;5058690;28;20049;-73
2023/01/31 05:14:21;;;;;;;22.58;6.28;;;;;;;5.07;82.38;102340.97;5075779;28;20068;-75
2023/01/31 05:16:48;;;;;;;23.33;6.40;;;;;;;5.10;82.83;102335.03;5075016;28;20384;-69
2023/01/31 05:19:16;;;;;;;20.52;5.63;;;;;;;5.23;82.08;102332.88;5024214;28;20048;-69
2023/01/31 05:21:58;;;;;;;16.58;5.60;;;;;;;5.31;81.22;102327.06;5074478;28;20044;-70
2023/01/31 05:24:30;;;;;;;23.75;6.50;;;;;;;5.37;81.19;102326.09;5074558;28;20056;-70
2023/01/31 05:27:00;;;;;;;22.10;5.78;;;;;;;5.41;80.62;102324.56;5072961;28;20591;-70
2023/01/31 05:29:28;;;;;;;;;;;;;;;5.54;79.90;102328.94;5057873;28;20230;-77
2023/01/31 05:32:05;;;;;;;21.63;5.35;;;;;;;5.52;80.11;102329.19;5075865;28;19921;-76
2023/01/31 05:34:34;;;;;;;19.35;5.40;;;;;;;5.41;80.23;102335.50;5076859;28;20071;-76
2023/01/31 05:37:01;;;;;;;23.60;5.70;;;;;;;5.55;80.38;102331.44;5076457;28;20060;-76
2023/01/31 05:39:29;;;;;;;30.67;6.00;;;;;;;5.41;80.58;102331.91;5076933;28;20055;-76
2023/01/31 05:41:57;;;;;;;21.63;5.50;;;;;;;5.50;80.16;102341.41;5075920;28;20419;-76
2023/01/31 05:44:24;;;;;;;28.05;5.55;;;;;;;5.37;81.35;102350.69;5077047;28;20048;-76
2023/01/31 05:46:52;;;;;;;20.35;6.13;;;;;;;5.20;81.45;102354.38;5076306;28;20056;-75
2023/01/31 05:49:19;;;;;;;22.92;5.68;;;;;;;5.17;82.39;102347.50;5059387;28;20064;-77
2023/01/31 05:51:46;;;;;;;21.08;5.20;;;;;;;5.08;82.41;102356.28;5074747;28;20064;-77
2023/01/31 05:54:14;;;;;;;22.05;5.72;;;;;;;5.06;83.13;102345.59;5075639;28;20052;-77
2023/01/31 05:56:41;;;;;;;22.20;5.43;;;;;;;4.92;83.58;102357.81;5073342;28;20061;-76
2023/01/31 05:59:08;;;;;;;30.70;5.38;;;;;;;4.90;84.17;102345.50;5075742;28;20040;-76
2023/01/31 06:01:36;;;;;;;22.25;5.97;;;;;;;5.05;83.56;102348.56;5078890;28;20051;-76
2023/01/31 06:04:03;;;;;;;26.23;5.10;;;;;;;5.24;82.51;102336.47;5077921;28;20048;-76
2023/01/31 06:06:31;;;;;;;27.95;6.30;;;;;;;5.20;82.64;102351.66;5076870;28;20641;-68
2023/01/31 06:08:58;;;;;;;25.80;5.82;;;;;;;5.26;82.82;102350.72;5076322;28;20472;-71
2023/01/31 06:11:26;;;;;;;23.65;6.28;;;;;;;5.51;82.58;102343.06;5077695;28;20064;-69
2023/01/31 06:13:56;;;;;;;23.73;6.15;;;;;;;5.40;82.26;102335.72;5076313;28;20053;-70
2023/01/31 06:16:24;;;;;;;24.30;5.03;;;;;;;5.21;82.34;102337.75;5075825;28;20067;-70
2023/01/31 06:18:54;;;;;;;27.20;5.45;;;;;;;5.47;81.76;102331.78;5078727;28;20051;-70
2023/01/31 06:21:22;;;;;;;17.73;5.18;;;;;;;5.43;81.57;102324.31;5076051;28;20048;-69
2023/01/31 06:23:49;;;;;;;29.15;5.05;;;;;;;5.61;80.85;102335.09;5077645;28;20056;-70
2023/01/31 06:26:16;;;;;;;24.00;5.07;;;;;;;5.72;80.89;102334.22;5059098;28;20052;-69
2023/01/31 06:28:44;;;;;;;22.98;4.93;;;;;;;5.58;80.96;102351.97;5058855;28;20506;-69
2023/01/31 06:31:12;;;;;;;19.40;4.82;;;;;;;5.82;80.21;102350.03;5059075;28;20467;-70
2023/01/31 06:33:40;;;;;;;17.67;4.78;;;;;;;5.61;81.14;102360.50;5077655;28;20048;-69
2023/01/31 06:36:15;;;;;;;24.45;4.95;;;;;;;5.49;81.35;102365.16;5076929;28;20048;-69
2023/01/31 06:38:50;;;;;;;28.77;5.28;;;;;;;5.62;80.54;102372.28;5076336;28;20071;-70
2023/01/31 06:41:18;;;;;;;20.08;5.18;;;;;;;5.56;81.21;102368.59;5077200;28;20416;-70
2023/01/31 06:43:46;;;;;;;28.55;5.30;;;;;;;5.57;80.95;102369.44;5077278;28;20041;-69
2023/01/31 06:46:13;;;;;;;21.98;5.25;;;;;;;5.62;81.24;102380.50;5077011;28;20057;-70
2023/01/31 06:48:42;;;;;;;24.50;5.65;;;;;;;5.75;80.05;102377.50;5059824;28;20036;-70
2023/01/31 06:51:10;;;;;;;28.35;5.65;;;;;;;5.67;80.73;102372.41;5077128;28;20071;-70
2023/01/31 06:53:37;;;;;;;20.70;5.20;;;;;;;5.87;79.70;102378.34;5059246;28;20398;-70
2023/01/31 06:56:05;;;;;;;23.50;5.53;;;;;;;5.99;78.59;102387.34;5075472;28;20056;-70
2023/01/31 06:58:33;;;;;;;21.52;5.30;;;;;;;5.95;78.31;102386.16;5042966;28;20056;-70
2023/01/31 07:01:12;;;;;;;13.32;4.25;;;;;;;5.89;78.67;102384.41;5075471;28;20067;-70
2023/01/31 07:03:40;;;;;;;20.77;4.95;;;;;;;5.78;78.98;102387.13;5076145;28;20048;-70
2023/01/31 07:06:08;;;;;;;25.27;5.05;;;;;;;5.84;79.08;102380.72;5058455;28;20053;-70
2023/01/31 07:08:36;;;;;;;28.98;5.40;;;;;;;5.77;78.68;102366.31;5077113;28;20070;-71
2023/01/31 07:11:04;;;;;;;21.95;5.63;;;;;;;5.76;78.71;102368.22;5057969;28;20045;-70
2023/01/31 07:13:31;;;;;;;21.13;4.88;;;;;;;5.95;77.98;102374.38;5059035;28;20044;-69
2023/01/31 07:15:59;;;;;;;27.63;4.72;;;;;;;5.81;78.39;102382.00;5063552;28;20119;-69
2023/01/31 07:18:26;;;;;;;22.48;4.47;;;;;;;5.75;79.59;102383.78;5075838;28;20079;-69
2023/01/31 07:20:53;;;;;;;27.17;5.30;;;;;;;5.92;78.90;102389.38;5066357;28;20040;-69
2023/01/31 07:23:21;;;;;;;25.73;5.25;;;;;;;5.90;78.18;102379.75;5075598;28;20041;-69
2023/01/31 07:25:48;;;;;;;20.90;4.50;;;;;;;5.79;78.44;102381.41;5074594;28;20051;-70
2023/01/31 07:28:16;;;;;;;23.60;4.60;;;;;;;5.72;79.40;102373.34;5070550;28;20044;-68
2023/01/31 07:30:45;;;;;;;25.08;4.72;;;;;;;6.06;77.98;102378.97;5068006;28;20395;-69
2023/01/31 07:33:12;;;;;;;24.77;4.72;;;;;;;5.95;77.97;102382.56;5066741;28;20072;-70
2023/01/31 07:35:43;;;;;;;27.27;5.32;;;;;;;6.25;77.45;102374.97;5061211;28;20049;-70
2023/01/31 07:38:10;;;;;;;23.60;4.80;;;;;;;6.18;77.04;102377.88;5046807;28;20056;-71
2023/01/31 07:40:39;;;;;;;28.98;8.85;;;;;;;6.51;76.19;102377.97;5069886;28;20044;-70
2023/01/31 07:43:06;;;;;;;26.67;7.80;;;;;;;6.61;75.97;102382.78;5064392;28;20546;-70
2023/01/31 07:45:34;;;;;;;20.25;4.32;;;;;;;6.59;75.56;102366.59;5072159;28;20055;-68
2023/01/31 07:48:02;;;;;;;17.52;4.63;;;;;;;6.44;75.78;102366.34;5061906;28;20052;-69
2023/01/31 07:50:29;;;;;;;26.63;5.07;;;;;;;6.75;75.74;102363.03;5074522;28;20046;-69
2023/01/31 07:52:57;;;;;;;23.25;4.53;;;;;;;7.08;74.93;102378.66;5067029;28;20412;-75
2023/01/31 07:55:25;;;;;;;19.42;4.50;;;;;;;6.87;73.83;102378.59;5059560;28;20059;-76
2023/01/31 07:57:53;;;;;;;20.23;4.28;;;;;;;6.77;74.10;102385.53;5060550;28;20507;-78
2023/01/31 08:03:31;;;;;;;23.25;4.53;;;;;;;6.83;75.45;102381.00;5065801;28;20059;-79
2023/01/31 08:06:10;;;;;;;22.42;4.53;;;;;;;6.68;75.15;102378.81;5065281;28;20052;-77
2023/01/31 08:08:39;;;;;;;27.92;5.15;;;;;;;6.55;75.03;102387.34;5070189;28;20044;-77
2023/01/31 08:11:08;;;;;;;26.27;4.85;;;;;;;6.62;75.50;102385.28;5067363;28;20048;-77
2023/01/31 08:13:36;;;;;;;25.48;4.88;;;;;;;6.66;75.12;102389.16;5073513;28;20049;-78
2023/01/31 08:16:06;;;;;;;24.58;4.97;;;;;;;6.68;75.30;102384.28;5065096;28;20060;-78
2023/01/31 08:18:33;;;;;;;22.02;4.93;;;;;;;7.13;74.58;102391.63;5077267;28;20049;-79
2023/01/31 08:21:00;;;;;;;20.48;3.85;;;;;;;7.02;73.41;102390.63;5063388;28;20045;-78
2023/01/31 08:23:28;;;;;;;22.42;4.72;;;;;;;6.88;73.94;102382.97;5054035;28;20075;-77
2023/01/31 08:26:04;;;;;;;20.45;4.10;;;;;;;6.77;74.39;102396.50;5062228;28;20049;-75
2023/01/31 08:28:32;;;;;;;20.60;6.13;;;;;;;6.56;75.40;102397.22;5048651;28;20056;-74
2023/01/31 08:30:59;;;;;;;22.55;4.60;;;;;;;6.40;75.59;102402.63;5062215;28;20051;-75
2023/01/31 08:33:37;;;;;;;25.55;4.22;;;;;;;6.46;75.94;102398.94;5061434;28;20048;-75
2023/01/31 08:36:09;;;;;;;24.33;5.33;;;;;;;6.65;75.57;102387.53;5050682;28;20044;-74
2023/01/31 08:38:37;;;;;;;22.60;5.57;;;;;;;6.49;75.68;102395.69;5064347;28;20427;-73
2023/01/31 08:41:04;;;;;;;19.90;4.88;;;;;;;6.70;75.41;102398.56;5067559;28;20048;-73
2023/01/31 08:43:32;;;;;;;23.90;4.50;;;;;;;7.01;74.92;102410.06;5060842;28;20396;-75
2023/01/31 08:46:18;;;;;;;28.30;4.55;;;;;;;6.84;74.19;102401.81;5065112;28;20045;-73
2023/01/31 08:48:46;;;;;;;20.20;3.90;;;;;;;6.77;74.49;102406.63;5067799;28;20053;-75
2023/01/31 08:51:13;;;;;;;16.65;4.20;;;;;;;6.61;75.28;102412.88;5060231;28;20052;-73
2023/01/31 08:53:45;;;;;;;31.05;6.22;;;;;;;6.62;74.99;102409.94;5055244;28;20124;-74
2023/01/31 08:56:13;;;;;;;22.65;4.95;;;;;;;6.78;75.05;102419.25;5062164;28;20079;-75
2023/01/31 08:58:42;;;;;;;44.67;5.05;;;;;;;7.05;74.16;102414.78;5054188;28;20049;-74
2023/01/31 09:01:12;;;;;;;19.48;4.80;;;;;;;7.04;73.65;102410.38;5057519;28;20059;-70
2023/01/31 09:03:40;;;;;;;26.35;5.95;;;;;;;7.10;73.05;102406.63;5063308;28;20052;-72
2023/01/31 09:06:16;;;;;;;23.30;5.78;;;;;;;7.30;72.81;102408.88;5055928;28;20162;-73
2023/01/31 09:08:45;;;;;;;25.42;4.97;;;;;;;7.43;72.41;102401.13;5053933;28;20056;-76
2023/01/31 09:11:17;;;;;;;24.45;4.85;;;;;;;7.35;72.43;102401.56;5061222;28;20048;-74
2023/01/31 09:13:48;;;;;;;23.88;4.68;;;;;;;7.19;72.98;102407.03;5056207;28;20051;-78
2023/01/31 09:16:16;;;;;;;23.95;6.72;;;;;;;7.57;71.98;102399.69;5069700;28;20048;-75
2023/01/31 09:18:43;;;;;;;27.90;7.45;;;;;;;7.60;71.53;102403.84;5048496;28;20052;-73
2023/01/31 09:21:13;;;;;;;17.90;4.38;;;;;;;7.43;71.95;102403.88;5065393;28;20052;-73
2023/01/31 09:23:40;;;;;;;;;;;;;;;7.52;71.95;102407.00;5040608;28;20408;-73
2023/01/31 09:26:10;;;;;;;24.58;4.53;;;;;;;7.40;71.78;102409.03;5059914;28;19920;-77
2023/01/31 09:28:41;;;;;;;24.95;4.78;;;;;;;7.31;72.48;102411.34;5066076;28;20041;-74
2023/01/31 09:31:11;;;;;;;21.35;4.43;;;;;;;7.35;71.61;102417.16;5062824;28;20044;-75
2023/01/31 09:33:39;;;;;;;26.17;3.90;;;;;;;7.51;72.12;102414.44;5064620;28;20507;-74
2023/01/31 09:36:12;;;;;;;16.83;3.85;;;;;;;7.51;71.77;102419.91;5052397;28;20048;-72
2023/01/31 09:38:40;;;;;;;16.65;4.30;;;;;;;7.84;74.47;102416.25;5064747;28;20055;-74
2023/01/31 09:41:29;;;;;;;21.55;5.03;;;;;;;7.78;71.20;102417.25;5069683;28;20411;-71
2023/01/31 09:44:11;;;;;;;21.98;4.53;;;;;;;7.65;70.30;102425.84;5067440;28;20049;-71
2023/01/31 09:46:43;;;;;;;18.63;4.05;;;;;;;7.54;70.59;102430.38;5064863;28;20060;-70
2023/01/31 09:49:17;;;;;;;21.95;4.90;;;;;;;7.50;71.37;102423.72;5065989;28;20048;-73
2023/01/31 09:51:45;;;;;;;23.58;4.93;;;;;;;7.47;70.43;102428.88;5062556;28;20081;-73
2023/01/31 09:54:19;;;;;;;22.83;4.93;;;;;;;7.51;70.73;102428.13;5068406;28;20099;-73
2023/01/31 09:57:00;;;;;;;22.58;5.43;;;;;;;7.79;70.79;102435.38;5071084;28;20037;-73
2023/01/31 09:59:35;;;;;;;21.17;5.50;;;;;;;7.83;69.91;102436.53;5039707;28;20048;-75
2023/01/31 10:02:10;;;;;;;19.77;4.93;;;;;;;7.47;70.09;102439.84;5060616;28;20075;-72
2023/01/31 10:05:04;;;;;;;17.77;4.90;;;;;;;7.39;71.11;102443.00;5056217;28;20045;-73
2023/01/31 10:07:36;;;;;;;21.25;4.53;;;;;;;7.43;70.61;102441.41;5062595;28;20045;-74
2023/01/31 10:10:27;;;;;;;20.83;4.30;;;;;;;7.49;70.36;102437.69;5066130;28;20051;-72
2023/01/31 10:12:58;;;;;;;15.70;3.90;;;;;;;7.35;71.44;102430.88;5061891;28;20049;-72
2023/01/31 10:15:32;;;;;;;18.85;4.40;;;;;;;7.47;71.18;102420.63;5064473;28;20056;-73
2023/01/31 10:18:05;;;;;;;16.73;4.32;;;;;;;7.24;71.46;102432.63;5066296;28;20052;-73
2023/01/31 10:20:36;;;;;;;18.25;4.50;;;;;;;7.31;71.43;102440.66;5062314;28;20067;-73
2023/01/31 10:23:15;;;;;;;17.85;4.22;;;;;;;7.27;71.25;102432.13;5064395;28;20056;-72
2023/01/31 10:25:56;;;;;;;23.10;4.80;;;;;;;7.24;71.87;102446.31;5062102;28;20048;-73
2023/01/31 10:28:37;;;;;;;14.82;4.68;;;;;;;7.18;71.82;102451.97;5058680;28;20057;-75
2023/01/31 10:31:22;;;;;;;19.95;4.32;;;;;;;7.06;72.51;102441.06;5062920;28;20045;-74
2023/01/31 10:33:57;;;;;;;19.65;4.90;;;;;;;7.25;72.56;102433.47;5052670;28;20072;-75
2023/01/31 10:36:28;;;;;;;27.33;5.15;;;;;;;7.22;72.40;102440.25;5046125;28;20048;-74
2023/01/31 10:39:09;;;;;;;20.42;4.57;;;;;;;7.37;72.10;102436.94;5042461;28;20059;-73
2023/01/31 10:41:44;;;;;;;20.23;5.75;;;;;;;7.43;71.63;102424.97;5064401;28;20040;-77
2023/01/31 10:44:21;;;;;;;19.20;4.68;;;;;;;7.86;70.98;102414.91;5054746;28;20063;-74
2023/01/31 10:46:50;;;;;;;18.15;4.82;;;;;;;7.81;70.42;102423.06;5052061;28;20071;-75
2023/01/31 10:49:20;;;;;;;21.52;5.43;;;;;;;8.14;69.96;102421.31;5062437;28;20088;-78
2023/01/31 10:52:07;;;;;;;25.65;5.13;;;;;;;8.19;68.94;102415.88;5073266;28;20040;-76
2023/01/31 10:54:52;;;;;;;26.67;4.63;;;;;;;8.27;68.56;102420.94;5054788;28;20060;-77
2023/01/31 10:57:19;;;;;;;16.67;4.93;;;;;;;8.10;68.51;102420.97;5071555;28;20105;-78
2023/01/31 10:59:47;;;;;;;21.80;5.13;;;;;;;8.21;68.87;102428.22;5024482;28;20407;-79
2023/01/31 11:02:28;;;;;;;21.20;5.30;;;;;;;8.27;68.61;102419.03;5054203;28;20052;-76
2023/01/31 11:04:57;;;;;;;19.42;4.65;;;;;;;8.53;67.75;102420.97;5073321;28;20060;-76
2023/01/31 11:07:29;;;;;;;23.50;5.35;;;;;;;8.69;67.94;102398.06;5054849;28;20057;-77
2023/01/31 11:09:57;;;;;;;19.80;5.53;;;;;;;8.46;67.58;102398.38;5053052;28;20656;-76
2023/01/31 11:12:41;;;;;;;20.25;5.13;;;;;;;8.70;67.42;102387.91;5051749;28;20061;-79
2023/01/31 11:15:17;;;;;;;17.70;4.10;;;;;;;8.66;66.89;102386.75;5046486;28;20048;-78
2023/01/31 11:17:45;;;;;;;28.92;4.85;;;;;;;8.53;67.70;102373.44;5063042;28;20041;-78
2023/01/31 11:20:45;;;;;;;21.00;5.35;;;;;;;8.58;67.05;102373.47;5075512;28;20059;-76
2023/01/31 11:23:24;;;;;;;20.52;5.07;;;;;;;8.81;66.94;102374.00;5053343;28;20401;-78
2023/01/31 11:25:53;;;;;;;26.40;5.50;;;;;;;8.87;66.53;102372.13;5052117;28;20508;-79
2023/01/31 11:28:32;;;;;;;14.93;4.90;;;;;;;8.60;67.21;102374.91;5043213;28;20755;-79
2023/01/31 11:31:00;;;;;;;31.63;6.47;;;;;;;8.93;66.72;102366.41;5064853;28;20053;-76
2023/01/31 11:33:47;;;;;;;27.15;5.60;;;;;;;8.88;65.92;102362.78;5057300;28;20041;-77
2023/01/31 11:36:21;;;;;;;18.98;4.88;;;;;;;8.68;66.90;102360.69;5063803;28;20056;-77
2023/01/31 11:38:49;;;;;;;23.05;5.30;;;;;;;8.91;66.74;102363.09;5058808;28;20055;-77
2023/01/31 11:41:36;;;;;;;23.33;5.32;;;;;;;8.98;66.05;102351.88;5058025;28;20385;-76
2023/01/31 11:44:18;;;;;;;21.00;5.53;;;;;;;9.27;65.69;102353.19;5060607;28;20055;-76
2023/01/31 11:46:46;;;;;;;31.98;5.22;;;;;;;9.25;64.88;102346.28;5061834;28;20428;-76
2023/01/31 11:49:22;;;;;;;21.33;4.93;;;;;;;9.21;65.32;102343.25;5064202;28;20053;-76